Altona, Illinois
Current Conditions -  °F | °C
As of 9:55 PM on Saturday 20 Dec 2014 (Local Time) from KGBG Reporting Station
Overcast Overcast  
Wind Chill:   Ceiling: 2300
Heat Index:   Visibility: 7mi
Dew Point:   Wind: 3mph
Humidity: 92%   Direction: 130°SE
Pressure: 30.2"   Gusts: NA
Location:  41.11°N, 90.16°W
Report Text: KGBG 210355Z AUTO 13003KT 7SM BKN023 OVC031 01/00 A3020 RMK AO2 T00071004
Loading
Personal Weather Stations






























Interactive Weather Map New forecast layout! Learn more

10-Day Weather Forecast

Advertisements
Track Severe Weather on mobile